Time;durP1;ratioP1;P1;durP2;ratioP2;P2;SDS_P1;SDS_P2;PMS_P1;PMS_P2;Temp;Humidity;BMP_temperature;BMP_pressure;BME280_temperature;BME280_humidity;BME280_pressure;Samples;Min_cycle;Max_cycle;Signal;HPM_P1;HPM_P2
2022/04/29 00:00:51;;;;;;;17.33;8.18;;;4.80;99.90;;;;;;5062231;28;20053;-78
2022/04/29 00:03:17;;;;;;;19.33;8.23;;;4.80;99.90;;;;;;5079763;28;20174;-78
2022/04/29 00:05:44;;;;;;;17.48;8.60;;;4.70;99.90;;;;;;5046439;28;20120;-78
2022/04/29 00:08:11;;;;;;;19.05;8.60;;;4.70;99.90;;;;;;5075002;28;20037;-78
2022/04/29 00:10:37;;;;;;;24.23;9.02;;;4.70;99.90;;;;;;5040787;28;20085;-77
2022/04/29 00:13:05;;;;;;;16.70;7.97;;;4.80;99.90;;;;;;5076411;28;20045;-77
2022/04/29 00:15:31;;;;;;;25.35;8.75;;;4.80;99.90;;;;;;5041883;28;20037;-77
2022/04/29 00:17:57;;;;;;;21.65;9.52;;;4.80;99.90;;;;;;5075198;28;20055;-78
2022/04/29 00:20:23;;;;;;;22.25;9.35;;;4.70;99.90;;;;;;5032570;28;20067;-77
2022/04/29 00:22:48;;;;;;;22.50;8.68;;;4.70;99.90;;;;;;5076390;28;20483;-78
2022/04/29 00:25:14;;;;;;;27.70;9.63;;;4.70;99.90;;;;;;5046400;28;20036;-78
2022/04/29 00:27:40;;;;;;;18.35;9.15;;;4.60;99.90;;;;;;5078871;28;20048;-77
2022/04/29 00:30:08;;;;;;;23.73;9.68;;;4.70;99.90;;;;;;5049910;28;20102;-77
2022/04/29 00:32:34;;;;;;;20.58;8.88;;;4.60;99.90;;;;;;5046773;28;20429;-78
2022/04/29 00:35:00;;;;;;;16.48;8.32;;;4.60;99.90;;;;;;5047828;28;20102;-78
2022/04/29 00:37:26;;;;;;;22.42;9.23;;;4.60;99.90;;;;;;5044545;28;20128;-77
2022/04/29 00:39:51;;;;;;;22.88;8.85;;;4.60;99.90;;;;;;5047404;28;20048;-78
2022/04/29 00:42:19;;;;;;;17.33;9.02;;;4.50;99.90;;;;;;5045459;28;20037;-77
2022/04/29 00:44:46;;;;;;;24.98;9.13;;;4.50;99.90;;;;;;5071450;28;20085;-77
2022/04/29 00:47:16;;;;;;;21.83;9.18;;;4.40;99.90;;;;;;5045320;28;20091;-77
2022/04/29 00:49:43;;;;;;;20.95;8.57;;;4.40;99.90;;;;;;5078210;28;20033;-76
2022/04/29 00:52:13;;;;;;;18.08;9.18;;;4.40;99.90;;;;;;5060087;28;20388;-77
2022/04/29 00:54:40;;;;;;;25.05;10.13;;;4.50;99.90;;;;;;5038469;28;20823;-76
2022/04/29 00:57:08;;;;;;;24.42;10.05;;;4.50;99.90;;;;;;5044783;28;20165;-76
2022/04/29 00:59:42;;;;;;;28.00;10.65;;;4.50;99.90;;;;;;5043855;28;20051;-77
2022/04/29 01:02:09;;;;;;;21.90;9.55;;;4.50;99.90;;;;;;5050725;28;20045;-77
2022/04/29 01:04:45;;;;;;;25.85;10.38;;;4.50;99.90;;;;;;5029034;28;20042;-77
2022/04/29 01:07:11;;;;;;;20.30;9.35;;;4.50;99.90;;;;;;5045791;28;20119;-76
2022/04/29 01:09:37;;;;;;;24.20;8.98;;;4.50;99.90;;;;;;5047711;28;20120;-76
2022/04/29 01:12:02;;;;;;;23.48;9.77;;;4.50;99.90;;;;;;5045771;28;20039;-76
2022/04/29 01:14:28;;;;;;;21.67;10.30;;;4.50;99.90;;;;;;5043330;28;20460;-76
2022/04/29 01:16:57;;;;;;;24.70;10.25;;;4.50;99.90;;;;;;5043933;28;20383;-76
2022/04/29 01:19:23;;;;;;;23.00;9.85;;;4.50;99.90;;;;;;5037329;28;20403;-76
2022/04/29 01:21:50;;;;;;;28.30;10.48;;;4.50;99.90;;;;;;5044968;28;20037;-77
2022/04/29 01:24:15;;;;;;;28.27;10.82;;;4.50;99.90;;;;;;5029315;28;20115;-77
2022/04/29 01:26:41;;;;;;;23.35;10.10;;;4.50;99.90;;;;;;5044665;28;20116;-77
2022/04/29 01:29:08;;;;;;;20.33;9.25;;;4.50;99.90;;;;;;5030764;28;20041;-77
2022/04/29 01:31:34;;;;;;;21.35;9.18;;;4.50;99.90;;;;;;5078271;28;20045;-77
2022/04/29 01:34:01;;;;;;;26.63;9.70;;;4.40;99.90;;;;;;5044270;28;20041;-77
2022/04/29 01:36:27;;;;;;;20.45;9.25;;;4.30;99.90;;;;;;5077073;28;20041;-77
2022/04/29 01:38:52;;;;;;;20.45;8.65;;;4.30;99.90;;;;;;5029017;28;20049;-77
2022/04/29 01:41:18;;;;;;;21.10;9.48;;;4.30;99.90;;;;;;5043038;28;20530;-77
2022/04/29 01:43:46;;;;;;;20.27;9.07;;;4.20;99.90;;;;;;5046498;28;20082;-78
2022/04/29 01:46:12;;;;;;;20.15;9.20;;;4.20;99.90;;;;;;5046524;28;20075;-78
2022/04/29 01:48:38;;;;;;;22.27;9.75;;;4.20;99.90;;;;;;5028897;28;20523;-77
2022/04/29 01:51:06;;;;;;;29.30;10.40;;;4.10;99.90;;;;;;5077302;28;20124;-77
2022/04/29 01:53:32;;;;;;;23.80;10.23;;;4.10;99.90;;;;;;5046840;28;20090;-76
2022/04/29 01:55:58;;;;;;;23.42;10.30;;;4.10;99.90;;;;;;5029591;28;20037;-77
2022/04/29 01:58:23;;;;;;;22.27;9.93;;;4.20;99.90;;;;;;5028733;28;20099;-77
2022/04/29 02:00:49;;;;;;;19.42;8.77;;;4.20;99.90;;;;;;5027431;28;20083;-76
2022/04/29 02:03:14;;;;;;;20.65;9.50;;;4.10;99.90;;;;;;5074590;28;20384;-77
2022/04/29 02:05:40;;;;;;;21.10;9.73;;;4.10;99.90;;;;;;5042820;28;20116;-77
2022/04/29 02:08:08;;;;;;;21.15;9.65;;;4.00;99.90;;;;;;5028884;28;20036;-77
2022/04/29 02:10:34;;;;;;;19.27;9.25;;;4.00;99.90;;;;;;5076654;28;20095;-77
2022/04/29 02:12:59;;;;;;;26.58;11.02;;;4.00;99.90;;;;;;5043290;28;20577;-77
2022/04/29 02:15:26;;;;;;;26.60;9.88;;;4.00;99.90;;;;;;5042467;28;20037;-77
2022/04/29 02:17:51;;;;;;;26.42;10.38;;;4.00;99.90;;;;;;5043463;28;20139;-77
2022/04/29 02:20:17;;;;;;;25.80;10.43;;;4.00;99.90;;;;;;5045259;28;20129;-77
2022/04/29 02:22:43;;;;;;;24.52;10.23;;;4.00;99.90;;;;;;5044268;28;20402;-77
2022/04/29 02:25:09;;;;;;;23.83;10.20;;;4.00;99.90;;;;;;5046352;28;20056;-77
2022/04/29 02:27:36;;;;;;;22.35;9.77;;;4.00;99.90;;;;;;5044178;28;20163;-76
2022/04/29 02:30:03;;;;;;;28.88;10.73;;;4.00;99.90;;;;;;5041769;28;20103;-77
2022/04/29 02:32:29;;;;;;;30.85;10.30;;;4.00;99.90;;;;;;5039763;28;20047;-76
2022/04/29 02:34:55;;;;;;;25.58;9.82;;;4.00;99.90;;;;;;5043517;28;20458;-76
2022/04/29 02:37:20;;;;;;;27.35;9.52;;;4.00;99.90;;;;;;5042970;28;20132;-77
2022/04/29 02:39:46;;;;;;;21.73;9.77;;;4.00;99.90;;;;;;5075658;28;20048;-78
2022/04/29 02:42:11;;;;;;;26.58;10.27;;;4.00;99.90;;;;;;5043985;28;20119;-78
2022/04/29 02:44:37;;;;;;;21.02;9.90;;;3.90;99.90;;;;;;5042355;28;20387;-78
2022/04/29 02:47:09;;;;;;;28.35;9.95;;;3.90;99.90;;;;;;5042135;28;20467;-78
2022/04/29 02:49:43;;;;;;;24.70;10.27;;;3.90;99.90;;;;;;5037921;28;20119;-78
2022/04/29 02:52:10;;;;;;;24.70;10.80;;;3.90;99.90;;;;;;5041944;28;20075;-78
2022/04/29 02:54:37;;;;;;;25.23;10.35;;;3.90;99.90;;;;;;5040135;28;20040;-78
2022/04/29 02:57:03;;;;;;;27.08;10.77;;;3.90;99.90;;;;;;5077338;28;20036;-78
2022/04/29 02:59:29;;;;;;;30.98;11.02;;;3.90;99.90;;;;;;5042373;28;20037;-77
2022/04/29 03:01:54;;;;;;;25.25;10.48;;;3.90;99.90;;;;;;5041062;28;20384;-78
2022/04/29 03:04:20;;;;;;;29.15;11.48;;;4.00;99.90;;;;;;5043131;28;20482;-78
2022/04/29 03:06:45;;;;;;;25.35;11.30;;;4.00;99.90;;;;;;5031173;28;20384;-78
2022/04/29 03:09:11;;;;;;;27.65;11.57;;;4.00;99.90;;;;;;5048833;28;20061;-78
2022/04/29 03:11:38;;;;;;;26.58;11.63;;;4.00;99.90;;;;;;5047644;28;20494;-78
2022/04/29 03:14:04;;;;;;;28.17;11.23;;;4.00;99.90;;;;;;5031553;28;20041;-78
2022/04/29 03:16:30;;;;;;;25.40;10.52;;;4.00;99.90;;;;;;5063316;28;20155;-77
2022/04/29 03:18:56;;;;;;;22.40;9.80;;;4.00;99.90;;;;;;5042828;28;20102;-78
2022/04/29 03:21:22;;;;;;;26.17;10.55;;;4.00;99.90;;;;;;5078694;28;20439;-78
2022/04/29 03:23:48;;;;;;;24.92;10.73;;;3.90;99.90;;;;;;5046985;28;20088;-77
2022/04/29 03:26:14;;;;;;;32.20;12.52;;;3.90;99.90;;;;;;5031560;28;20033;-78
2022/04/29 03:28:39;;;;;;;26.17;11.13;;;3.90;99.90;;;;;;5031421;28;20124;-77
2022/04/29 03:31:05;;;;;;;28.17;11.38;;;3.90;99.90;;;;;;5032209;28;20116;-78
2022/04/29 03:33:31;;;;;;;26.80;12.00;;;3.90;99.90;;;;;;5043778;28;20028;-77
2022/04/29 03:35:57;;;;;;;27.48;11.13;;;3.80;99.90;;;;;;5042006;28;20115;-77
2022/04/29 03:38:23;;;;;;;30.40;11.43;;;3.90;99.90;;;;;;5047006;28;20481;-77
2022/04/29 03:40:50;;;;;;;27.70;10.95;;;3.90;99.90;;;;;;5048883;28;20037;-78
2022/04/29 03:43:16;;;;;;;30.33;11.35;;;3.90;99.90;;;;;;5047405;28;20499;-78
2022/04/29 03:45:42;;;;;;;26.65;11.40;;;3.90;99.90;;;;;;5058144;28;20041;-78
2022/04/29 03:48:07;;;;;;;26.50;12.40;;;4.00;99.90;;;;;;5047430;28;20553;-78
2022/04/29 03:50:33;;;;;;;29.67;11.75;;;3.90;99.90;;;;;;5030742;28;20511;-77
2022/04/29 03:53:00;;;;;;;27.92;11.45;;;3.90;99.90;;;;;;5046026;28;20388;-78
2022/04/29 03:55:29;;;;;;;31.63;12.20;;;3.90;99.90;;;;;;5044784;28;20106;-76
2022/04/29 03:57:55;;;;;;;30.35;12.32;;;4.00;99.90;;;;;;5045478;28;20591;-77
2022/04/29 04:00:22;;;;;;;29.95;11.15;;;4.00;99.90;;;;;;5041899;28;20048;-78
2022/04/29 04:02:48;;;;;;;30.27;11.80;;;3.90;99.90;;;;;;5052692;28;20517;-78
2022/04/29 04:05:13;;;;;;;28.85;11.30;;;3.90;99.90;;;;;;5057277;28;20037;-78
2022/04/29 04:07:39;;;;;;;30.90;12.35;;;3.90;99.90;;;;;;5055883;28;20102;-78
2022/04/29 04:10:06;;;;;;;29.27;11.38;;;3.90;99.90;;;;;;5060334;28;20664;-78
2022/04/29 04:12:42;;;;;;;29.35;11.93;;;3.90;99.90;;;;;;5049400;28;20479;-77
2022/04/29 04:15:09;;;;;;;29.20;12.27;;;3.90;99.90;;;;;;5046574;28;20036;-78
2022/04/29 04:17:35;;;;;;;32.97;12.65;;;4.00;99.90;;;;;;5046729;28;20525;-78
2022/04/29 04:20:01;;;;;;;33.05;12.27;;;4.00;99.90;;;;;;5050541;28;20095;-78
2022/04/29 04:22:30;;;;;;;30.80;12.13;;;4.00;99.90;;;;;;5049936;28;20086;-77
2022/04/29 04:24:59;;;;;;;29.38;11.70;;;4.00;99.90;;;;;;5039297;28;20036;-78
2022/04/29 04:27:25;;;;;;;31.88;11.93;;;4.00;99.90;;;;;;5053467;28;20119;-78
2022/04/29 04:29:50;;;;;;;31.13;12.05;;;4.00;99.90;;;;;;5052626;28;20127;-77
2022/04/29 04:32:16;;;;;;;32.95;11.73;;;4.10;99.90;;;;;;5052454;28;20051;-77
2022/04/29 04:34:50;;;;;;;29.27;11.55;;;4.10;99.90;;;;;;5052516;28;20043;-77
2022/04/29 04:37:20;;;;;;;28.15;11.25;;;4.10;99.90;;;;;;5046419;28;20171;-77
2022/04/29 04:39:50;;;;;;;27.60;11.40;;;4.20;99.90;;;;;;5048032;28;20037;-78
2022/04/29 04:42:17;;;;;;;27.17;11.77;;;4.20;99.90;;;;;;5054127;28;20063;-78
2022/04/29 04:44:45;;;;;;;27.80;11.10;;;4.20;99.90;;;;;;5045998;28;20444;-78
2022/04/29 04:47:10;;;;;;;31.55;11.63;;;4.30;99.90;;;;;;5048753;28;20509;-77
2022/04/29 04:49:36;;;;;;;27.67;11.50;;;4.40;99.90;;;;;;5045932;28;20029;-75
2022/04/29 04:52:02;;;;;;;33.47;12.93;;;4.40;99.90;;;;;;5047108;28;20095;-76
2022/04/29 04:54:27;;;;;;;31.00;11.38;;;4.50;99.90;;;;;;5045242;28;20049;-77
2022/04/29 04:56:53;;;;;;;29.48;11.80;;;4.50;99.90;;;;;;5043264;28;20041;-76
2022/04/29 04:59:18;;;;;;;31.38;12.50;;;4.60;99.90;;;;;;5027875;28;20229;-75
2022/04/29 05:01:44;;;;;;;32.03;13.32;;;4.70;99.90;;;;;;5024116;28;20044;-75
2022/04/29 05:04:10;;;;;;;35.90;12.52;;;4.70;99.90;;;;;;5026477;28;20036;-77
2022/04/29 05:06:38;;;;;;;34.50;13.63;;;4.90;99.90;;;;;;5039503;28;20108;-76
2022/04/29 05:09:05;;;;;;;30.63;12.52;;;4.90;99.90;;;;;;5042038;28;20365;-76
2022/04/29 05:11:31;;;;;;;30.60;12.50;;;5.00;99.90;;;;;;5044789;28;20045;-77
2022/04/29 05:13:57;;;;;;;28.13;12.23;;;5.10;99.90;;;;;;5045938;28;20041;-77
2022/04/29 05:16:24;;;;;;;26.23;11.68;;;5.20;99.90;;;;;;5043904;28;20052;-77
2022/04/29 05:18:49;;;;;;;37.70;13.00;;;5.30;99.90;;;;;;5045192;28;20051;-77
2022/04/29 05:21:15;;;;;;;35.05;12.27;;;5.40;99.90;;;;;;5048977;28;20045;-77
2022/04/29 05:23:41;;;;;;;34.90;12.63;;;5.50;99.90;;;;;;5031937;28;20533;-78
2022/04/29 05:26:07;;;;;;;30.02;11.90;;;5.60;99.90;;;;;;5043010;28;20037;-77
2022/04/29 05:28:32;;;;;;;34.47;11.75;;;5.70;99.90;;;;;;5042609;28;20041;-78
2022/04/29 05:30:58;;;;;;;31.90;12.50;;;5.80;99.90;;;;;;5028657;28;20043;-78
2022/04/29 05:33:24;;;;;;;29.98;11.35;;;5.90;99.90;;;;;;5048946;28;20071;-78
2022/04/29 05:35:50;;;;;;;29.55;11.10;;;6.00;99.90;;;;;;5052701;28;20080;-77
2022/04/29 05:38:16;;;;;;;32.88;11.60;;;6.10;99.90;;;;;;5082212;28;20064;-78
2022/04/29 05:43:29;;;;;;;37.72;11.85;;;6.20;99.90;;;;;;5045455;28;20423;-77
2022/04/29 05:45:55;;;;;;;29.98;11.73;;;6.30;99.90;;;;;;5047939;28;20045;-78
2022/04/29 05:48:21;;;;;;;29.88;12.32;;;6.30;99.90;;;;;;5049378;28;20035;-78
2022/04/29 05:50:46;;;;;;;28.55;11.77;;;6.40;99.90;;;;;;5047240;28;20040;-79
2022/04/29 05:53:12;;;;;;;34.00;11.77;;;6.50;99.90;;;;;;5047836;28;20033;-79
2022/04/29 05:55:38;;;;;;;29.20;11.73;;;6.60;99.90;;;;;;5048321;28;20369;-77
2022/04/29 05:58:04;;;;;;;30.20;12.90;;;6.60;99.90;;;;;;5050315;28;20048;-79
2022/04/29 06:00:30;;;;;;;29.88;11.20;;;6.70;99.90;;;;;;5077824;28;20459;-78
2022/04/29 06:02:56;;;;;;;32.95;11.68;;;6.70;99.90;;;;;;5054167;28;20445;-78
2022/04/29 06:05:22;;;;;;;29.40;12.00;;;6.80;99.90;;;;;;5050804;28;20400;-79
2022/04/29 06:07:48;;;;;;;32.30;11.95;;;6.90;99.90;;;;;;5051808;28;20040;-78
2022/04/29 06:10:13;;;;;;;28.38;11.65;;;6.80;99.90;;;;;;5062713;28;20043;-79
2022/04/29 06:12:43;;;;;;;28.58;10.48;;;6.90;99.90;;;;;;5062936;28;20062;-80
2022/04/29 06:15:18;;;;;;;26.15;11.23;;;7.10;99.90;;;;;;5052256;28;20476;-78
2022/04/29 06:17:44;;;;;;;31.42;12.52;;;7.10;99.90;;;;;;5058509;28;20072;-77
2022/04/29 06:20:10;;;;;;;32.95;12.43;;;7.20;99.90;;;;;;5056373;28;20038;-78
2022/04/29 06:22:45;;;;;;;32.17;11.88;;;7.20;99.90;;;;;;5058805;28;20040;-78
2022/04/29 06:25:11;;;;;;;35.10;12.13;;;7.30;99.90;;;;;;5066382;28;20467;-75
2022/04/29 06:27:36;;;;;;;30.15;12.25;;;7.40;99.90;;;;;;5057952;28;20111;-78
2022/04/29 06:30:02;;;;;;;35.28;12.95;;;7.40;99.90;;;;;;5038760;28;21221;-76
2022/04/29 06:32:28;;;;;;;32.03;13.52;;;7.50;99.90;;;;;;5051727;28;20438;-76
2022/04/29 06:34:53;;;;;;;39.70;13.70;;;7.60;99.90;;;;;;5035429;28;20045;-77
2022/04/29 06:37:20;;;;;;;30.83;12.73;;;7.70;99.90;;;;;;5048557;28;20041;-76
2022/04/29 06:39:46;;;;;;;35.25;14.82;;;7.70;99.90;;;;;;5030921;28;20044;-77
2022/04/29 06:42:11;;;;;;;31.00;13.40;;;7.80;99.90;;;;;;5045549;28;20044;-77
2022/04/29 06:44:37;;;;;;;33.60;13.65;;;7.80;99.90;;;;;;5052633;28;20037;-77
2022/04/29 06:47:03;;;;;;;31.92;12.73;;;7.90;99.90;;;;;;5038552;28;20391;-78
2022/04/29 06:49:29;;;;;;;35.30;13.10;;;7.90;99.90;;;;;;5064009;28;20063;-74
2022/04/29 06:51:55;;;;;;;29.88;12.65;;;7.90;99.90;;;;;;5039215;28;20040;-76
2022/04/29 06:54:21;;;;;;;27.52;12.13;;;8.00;99.90;;;;;;5082941;28;20115;-77
2022/04/29 06:56:46;;;;;;;31.38;12.25;;;8.00;99.90;;;;;;5045639;28;20073;-76
2022/04/29 06:59:12;;;;;;;27.58;11.70;;;8.10;99.90;;;;;;5067828;28;20182;-76
2022/04/29 07:01:37;;;;;;;27.27;11.73;;;8.10;99.90;;;;;;5058650;28;20040;-76
2022/04/29 07:04:03;;;;;;;27.17;11.60;;;8.10;99.90;;;;;;5055142;28;20045;-79
2022/04/29 07:06:28;;;;;;;28.88;11.73;;;8.30;99.90;;;;;;5052340;28;20044;-75
2022/04/29 07:08:54;;;;;;;27.75;11.48;;;8.30;99.90;;;;;;5049839;28;20040;-78
2022/04/29 07:11:20;;;;;;;25.33;11.48;;;8.40;99.90;;;;;;5054552;28;20136;-75
2022/04/29 07:13:45;;;;;;;30.95;11.30;;;8.40;99.90;;;;;;5050477;28;20036;-79
2022/04/29 07:16:11;;;;;;;28.52;11.00;;;8.50;99.90;;;;;;5052802;28;20475;-76
2022/04/29 07:18:36;;;;;;;25.65;10.90;;;8.60;99.90;;;;;;5057923;28;20530;-79
2022/04/29 07:21:03;;;;;;;25.88;9.85;;;8.60;99.90;;;;;;5053888;28;20500;-74
2022/04/29 07:23:29;;;;;;;26.13;9.48;;;8.80;99.90;;;;;;5057068;28;20248;-75
2022/04/29 07:25:55;;;;;;;19.85;9.55;;;8.80;99.90;;;;;;5054221;28;21475;-74
2022/04/29 07:28:21;;;;;;;20.80;9.30;;;8.80;99.90;;;;;;5058833;28;20044;-77
2022/04/29 07:30:47;;;;;;;19.52;9.20;;;8.90;99.90;;;;;;5064361;28;20369;-71
2022/04/29 07:33:14;;;;;;;18.95;8.57;;;9.00;99.90;;;;;;5060687;28;20037;-77
2022/04/29 07:43:53;;;;;;;15.95;7.05;;;9.10;99.90;;;;;;5058146;28;20052;-75
2022/04/29 07:46:21;;;;;;;19.95;8.00;;;9.10;99.90;;;;;;5065104;28;20036;-74
2022/04/29 07:48:48;;;;;;;15.35;7.43;;;9.10;99.90;;;;;;5080686;28;20196;-79
2022/04/29 07:51:13;;;;;;;18.35;7.85;;;9.20;99.90;;;;;;5078225;28;20029;-77
2022/04/29 07:53:39;;;;;;;20.45;8.13;;;9.30;99.90;;;;;;5053398;28;20047;-76
2022/04/29 07:56:05;;;;;;;22.25;8.98;;;9.40;99.90;;;;;;5050899;28;20493;-77
2022/04/29 07:58:31;;;;;;;19.80;8.80;;;9.50;99.90;;;;;;5085604;28;20403;-79
2022/04/29 08:00:57;;;;;;;20.60;7.80;;;9.70;99.90;;;;;;5058037;28;20098;-74
2022/04/29 08:03:23;;;;;;;19.45;8.40;;;9.80;99.90;;;;;;5085002;28;20044;-74
2022/04/29 08:05:49;;;;;;;23.35;9.15;;;9.90;99.90;;;;;;5057113;28;20404;-78
2022/04/29 08:08:15;;;;;;;14.10;7.93;;;10.10;99.90;;;;;;5084509;28;20077;-77
2022/04/29 08:10:41;;;;;;;22.40;8.90;;;10.20;99.90;;;;;;5045660;28;20071;-79
2022/04/29 08:13:06;;;;;;;18.80;8.30;;;10.30;99.90;;;;;;5053523;28;20028;-75
2022/04/29 08:15:32;;;;;;;19.02;8.50;;;10.40;99.90;;;;;;5050661;28;20484;-81
2022/04/29 08:17:59;;;;;;;17.05;8.43;;;10.60;99.90;;;;;;5054431;28;20353;-77
2022/04/29 08:20:24;;;;;;;23.75;9.18;;;10.70;99.90;;;;;;5082098;28;20478;-79
2022/04/29 08:22:50;;;;;;;15.95;8.55;;;10.90;99.90;;;;;;5051482;28;20068;-80
2022/04/29 08:25:18;;;;;;;17.65;8.70;;;11.20;99.90;;;;;;5043099;28;20060;-80
2022/04/29 08:27:44;;;;;;;19.25;8.65;;;11.40;99.90;;;;;;5059841;28;20120;-76
2022/04/29 08:30:10;;;;;;;22.65;7.88;;;11.50;99.90;;;;;;5061126;28;20152;-78
2022/04/29 08:32:47;;;;;;;13.02;7.15;;;11.60;99.90;;;;;;5066497;28;20036;-71
2022/04/29 08:35:13;;;;;;;16.50;8.35;;;11.80;99.90;;;;;;5065566;28;20119;-75
2022/04/29 08:37:40;;;;;;;13.50;7.60;;;11.80;99.90;;;;;;5049816;28;20041;-76
2022/04/29 08:40:06;;;;;;;16.52;8.13;;;11.80;99.90;;;;;;5049979;28;20488;-76
2022/04/29 08:42:37;;;;;;;16.65;8.82;;;11.90;99.90;;;;;;5051432;28;20073;-76
2022/04/29 08:45:14;;;;;;;19.23;8.50;;;11.90;99.90;;;;;;5080906;28;20366;-78
2022/04/29 08:47:44;;;;;;;17.73;8.15;;;11.90;99.90;;;;;;5054356;28;20142;-78
2022/04/29 08:50:15;;;;;;;18.92;8.07;;;11.80;99.90;;;;;;5054532;28;20075;-76
2022/04/29 08:52:42;;;;;;;18.60;8.13;;;11.70;99.90;;;;;;5066618;28;20044;-75
2022/04/29 09:00:41;;;;;;;14.20;7.78;;;11.80;99.90;;;;;;5064424;28;20047;-75
2022/04/29 09:03:16;;;;;;;12.68;7.03;;;11.90;99.90;;;;;;5082025;28;20051;-75
2022/04/29 09:05:42;;;;;;;13.40;7.00;;;12.00;99.90;;;;;;5063357;28;20381;-77
2022/04/29 09:08:15;;;;;;;11.77;6.95;;;12.00;99.90;;;;;;5051002;28;20032;-74
2022/04/29 09:10:57;;;;;;;;;;;12.00;99.90;;;;;;5050342;28;20044;-76
2022/04/29 09:13:27;;;;;;;13.50;7.25;;;12.10;99.90;;;;;;5065695;28;19927;-80
2022/04/29 09:15:58;;;;;;;11.95;7.38;;;12.10;99.90;;;;;;5024130;28;20033;-75
2022/04/29 09:18:49;;;;;;;12.35;7.43;;;12.30;99.90;;;;;;5030761;28;20412;-78
2022/04/29 09:21:30;;;;;;;16.00;7.60;;;12.40;99.90;;;;;;5035899;28;20041;-77
2022/04/29 09:23:59;;;;;;;15.40;7.38;;;12.60;99.90;;;;;;5043598;28;20124;-80
2022/04/29 09:26:30;;;;;;;14.20;6.95;;;12.70;99.90;;;;;;5082820;28;20091;-77
2022/04/29 09:29:14;;;;;;;13.55;6.75;;;12.90;99.90;;;;;;5084779;28;20059;-79
2022/04/29 09:31:56;;;;;;;15.15;7.60;;;12.90;99.90;;;;;;5068448;28;20032;-79
2022/04/29 09:34:53;;;;;;;16.05;7.20;;;12.80;99.90;;;;;;5047132;28;20450;-76
2022/04/29 09:37:30;;;;;;;14.43;8.02;;;12.70;99.90;;;;;;5048217;28;20445;-81
2022/04/29 09:40:01;;;;;;;12.18;7.00;;;12.70;99.90;;;;;;5083685;28;20041;-76
2022/04/29 09:42:40;;;;;;;13.60;7.57;;;12.70;99.90;;;;;;5047283;28;20048;-76
2022/04/29 09:45:18;;;;;;;12.90;7.68;;;12.60;99.90;;;;;;5081877;28;20043;-78
2022/04/29 09:47:44;;;;;;;14.88;6.60;;;12.40;99.90;;;;;;5033935;28;20035;-75
2022/04/29 09:50:10;;;;;;;11.32;7.30;;;12.40;99.90;;;;;;5049308;28;20079;-77
2022/04/29 09:52:40;;;;;;;13.02;7.85;;;12.30;99.90;;;;;;5048101;28;20029;-78
2022/04/29 09:55:19;;;;;;;14.77;7.63;;;12.30;99.90;;;;;;5081919;28;20076;-79
2022/04/29 09:57:56;;;;;;;12.90;7.55;;;12.20;99.90;;;;;;5041500;28;20036;-78
2022/04/29 10:00:23;;;;;;;11.15;7.63;;;12.10;99.90;;;;;;5051926;28;20057;-79
2022/04/29 10:02:49;;;;;;;19.83;8.40;;;12.10;99.90;;;;;;5063447;28;20045;-74
2022/04/29 10:05:15;;;;;;;14.20;7.57;;;12.00;99.90;;;;;;5063887;28;20140;-75
2022/04/29 10:07:41;;;;;;;13.23;6.45;;;11.90;99.90;;;;;;5050059;28;20041;-79
2022/04/29 10:10:09;;;;;;;15.23;7.78;;;11.80;99.90;;;;;;5061443;28;20048;-78
2022/04/29 10:12:35;;;;;;;11.63;6.90;;;11.60;99.90;;;;;;5029604;28;20411;-76
2022/04/29 10:15:06;;;;;;;10.20;6.57;;;11.70;99.90;;;;;;5048651;28;20037;-77
2022/04/29 10:23:10;;;;;;;16.30;7.43;;;11.60;99.90;;;;;;5053720;28;20097;-79
2022/04/29 10:26:07;;;;;;;15.43;6.65;;;11.60;99.90;;;;;;5063888;28;20457;-73
2022/04/29 10:28:32;;;;;;;12.95;6.63;;;11.70;99.90;;;;;;5055737;28;20037;-74
2022/04/29 10:31:06;;;;;;;14.43;7.13;;;11.70;99.90;;;;;;5053747;28;20400;-75
2022/04/29 10:33:32;;;;;;;13.75;6.35;;;11.60;99.90;;;;;;5053046;28;20037;-78
2022/04/29 10:36:06;;;;;;;11.57;6.15;;;11.60;99.90;;;;;;5034567;28;20056;-77
2022/04/29 10:38:36;;;;;;;12.57;6.07;;;11.70;99.90;;;;;;5032655;28;20055;-75
2022/04/29 10:41:18;;;;;;;15.02;6.40;;;11.70;99.90;;;;;;5036533;28;20048;-76
2022/04/29 10:43:49;;;;;;;11.98;5.90;;;11.80;99.90;;;;;;5051540;28;20045;-73
2022/04/29 10:46:22;;;;;;;14.35;6.20;;;11.80;99.90;;;;;;5049958;28;20044;-83
2022/04/29 10:48:50;;;;;;;14.35;6.72;;;11.90;99.90;;;;;;5031927;28;20053;-75
2022/04/29 10:51:21;;;;;;;11.82;6.43;;;11.90;99.90;;;;;;5033368;28;20459;-76
2022/04/29 10:53:49;;;;;;;15.43;5.93;;;12.00;99.90;;;;;;5028701;28;20403;-79
2022/04/29 10:56:30;;;;;;;13.43;6.10;;;12.10;99.90;;;;;;5053578;28;20488;-75
2022/04/29 10:59:15;;;;;;;10.23;5.57;;;12.10;99.90;;;;;;5053065;28;20041;-78
2022/04/29 11:02:08;;;;;;;9.23;5.18;;;12.10;99.90;;;;;;5054078;28;20064;-80
2022/04/29 11:04:34;;;;;;;7.93;5.00;;;12.00;99.90;;;;;;5051194;28;20049;-74
2022/04/29 11:07:00;;;;;;;10.38;5.50;;;11.90;99.90;;;;;;5056003;28;20045;-78
2022/04/29 11:09:31;;;;;;;10.20;4.65;;;11.90;99.90;;;;;;5069664;28;20041;-76
2022/04/29 11:12:01;;;;;;;10.95;5.10;;;11.90;99.90;;;;;;5052703;28;20125;-74
2022/04/29 11:14:26;;;;;;;10.40;5.30;;;12.00;99.90;;;;;;5053450;28;20056;-81
2022/04/29 11:16:56;;;;;;;14.63;5.25;;;12.10;99.90;;;;;;5053833;28;20040;-82
2022/04/29 11:19:28;;;;;;;13.13;5.65;;;12.10;99.90;;;;;;5050103;28;20044;-78
2022/04/29 11:24:49;;;;;;;10.73;5.72;;;12.30;99.90;;;;;;5056840;28;20063;-72
2022/04/29 11:27:33;;;;;;;12.55;5.05;;;12.20;99.90;;;;;;5055296;28;20044;-72
2022/04/29 11:30:02;;;;;;;11.50;4.63;;;12.10;99.90;;;;;;5084930;28;20441;-75
2022/04/29 11:32:28;;;;;;;7.78;5.32;;;12.00;99.90;;;;;;5032248;28;20118;-78
2022/04/29 11:34:55;;;;;;;10.60;5.20;;;11.80;99.90;;;;;;5055036;28;20053;-79
2022/04/29 11:37:27;;;;;;;13.68;5.72;;;11.90;99.90;;;;;;5052175;28;20057;-75
2022/04/29 11:39:55;;;;;;;13.18;5.82;;;11.90;99.90;;;;;;5071736;28;20053;-74
2022/04/29 11:42:21;;;;;;;10.65;5.28;;;11.90;99.90;;;;;;5056911;28;20167;-81
2022/04/29 11:44:49;;;;;;;14.10;6.35;;;11.90;99.90;;;;;;5069606;28;20488;-78
2022/04/29 11:47:16;;;;;;;7.75;5.25;;;11.80;99.90;;;;;;5054786;28;20068;-72
2022/04/29 11:49:42;;;;;;;11.70;6.13;;;11.80;99.90;;;;;;5054575;28;20067;-78
2022/04/29 11:52:21;;;;;;;11.73;6.22;;;11.80;99.90;;;;;;5052345;28;20099;-74
2022/04/29 11:54:55;;;;;;;14.70;5.60;;;11.70;99.90;;;;;;5051061;28;20051;-79
2022/04/29 11:57:22;;;;;;;10.70;5.55;;;11.70;99.90;;;;;;5085269;28;20048;-77
2022/04/29 11:59:48;;;;;;;13.10;6.10;;;11.80;99.90;;;;;;5036874;28;20120;-75
2022/04/29 12:02:45;;;;;;;14.77;6.40;;;11.90;99.90;;;;;;5054058;28;20041;-75
2022/04/29 12:05:11;;;;;;;10.57;5.30;;;12.00;99.90;;;;;;5053165;28;20095;-73
2022/04/29 12:07:42;;;;;;;11.52;5.57;;;12.10;99.90;;;;;;5053972;28;20041;-71
2022/04/29 12:10:26;;;;;;;15.27;6.47;;;12.20;99.90;;;;;;5033214;28;20509;-83
2022/04/29 12:13:03;;;;;;;22.17;5.80;;;12.20;99.90;;;;;;5032193;28;20030;-77
2022/04/29 12:15:37;;;;;;;12.70;6.22;;;12.30;99.90;;;;;;5032957;28;20050;-78
2022/04/29 12:18:14;;;;;;;13.88;6.07;;;12.40;99.90;;;;;;5051739;28;20041;-76
2022/04/29 12:20:41;;;;;;;16.00;6.40;;;12.50;99.90;;;;;;5086438;28;20037;-79
2022/04/29 12:23:12;;;;;;;9.48;5.90;;;12.50;99.90;;;;;;5046809;28;20041;-80
2022/04/29 12:25:44;;;;;;;12.05;6.82;;;12.50;99.90;;;;;;5068746;28;20133;-76
2022/04/29 12:28:23;;;;;;;19.58;7.38;;;12.60;99.90;;;;;;5058328;28;20051;-73
2022/04/29 12:36:44;;;;;;;12.13;7.00;;;12.60;99.90;;;;;;5053556;28;20420;-74
2022/04/29 12:39:10;;;;;;;10.02;5.15;;;12.80;99.90;;;;;;5083115;28;20052;-73
2022/04/29 12:41:36;;;;;;;10.60;7.28;;;12.90;99.90;;;;;;5052849;28;20045;-75
2022/04/29 12:47:21;;;;;;;13.00;7.22;;;12.70;99.90;;;;;;5051247;28;20051;-75
2022/04/29 12:49:46;;;;;;;16.00;7.78;;;12.70;99.90;;;;;;5050549;28;20037;-75
2022/04/29 12:52:12;;;;;;;10.88;6.78;;;12.70;99.90;;;;;;5058039;28;20051;-81
2022/04/29 12:54:37;;;;;;;15.50;8.40;;;12.70;99.90;;;;;;5045739;28;20068;-74
2022/04/29 12:57:05;;;;;;;13.88;8.70;;;12.70;99.90;;;;;;5043415;28;20051;-74
2022/04/29 12:59:31;;;;;;;16.02;8.55;;;12.50;99.90;;;;;;5051258;28;20037;-77
2022/04/29 13:02:05;;;;;;;14.65;9.00;;;12.50;99.90;;;;;;5051619;28;20438;-75
2022/04/29 13:04:30;;;;;;;13.68;8.02;;;12.40;99.90;;;;;;5054787;28;20282;-76
2022/04/29 13:06:56;;;;;;;14.27;8.05;;;12.50;99.90;;;;;;5044609;28;20071;-78
2022/04/29 13:09:24;;;;;;;17.63;8.40;;;12.40;99.90;;;;;;5042467;28;20604;-79
2022/04/29 13:11:50;;;;;;;11.93;8.75;;;12.50;99.90;;;;;;5054144;28;20116;-80
2022/04/29 13:14:16;;;;;;;18.83;9.65;;;12.50;99.90;;;;;;5055698;28;20040;-79
2022/04/29 13:16:43;;;;;;;17.88;7.65;;;12.40;99.90;;;;;;5055538;28;20127;-72
2022/04/29 13:19:10;;;;;;;12.77;8.25;;;12.60;99.90;;;;;;5051569;28;20033;-75